createdAt,value
2022-08-29T00:00:50.556Z,82.59
2022-08-29T00:03:18.365Z,82.68
2022-08-29T00:05:50.047Z,82.70
2022-08-29T00:08:17.751Z,82.25
2022-08-29T00:10:44.516Z,82.29
2022-08-29T00:13:12.256Z,82.30
2022-08-29T00:15:47.481Z,82.70
2022-08-29T00:18:15.944Z,82.89
2022-08-29T00:20:43.842Z,82.95
2022-08-29T00:23:11.186Z,83.08
2022-08-29T00:25:38.027Z,83.09
2022-08-29T00:28:05.449Z,82.97
2022-08-29T00:30:33.120Z,82.84
2022-08-29T00:33:00.900Z,82.92
2022-08-29T00:35:32.321Z,82.92
2022-08-29T00:38:00.068Z,83.37
2022-08-29T00:40:31.120Z,83.26
2022-08-29T00:42:58.499Z,83.57
2022-08-29T00:45:25.318Z,83.72
2022-08-29T00:48:11.758Z,83.82
2022-08-29T00:50:47.983Z,83.69
2022-08-29T00:53:17.191Z,83.85
2022-08-29T00:55:50.403Z,83.62
2022-08-29T00:58:35.260Z,84.30
2022-08-29T01:01:02.151Z,84.02
2022-08-29T01:03:33.148Z,84.47
2022-08-29T01:06:01.011Z,84.43
2022-08-29T01:08:27.812Z,85.04
2022-08-29T01:11:13.978Z,84.80
2022-08-29T01:13:44.105Z,84.59
2022-08-29T01:16:13.577Z,84.67
2022-08-29T01:18:44.146Z,84.75
2022-08-29T01:21:20.176Z,84.74
2022-08-29T01:23:59.366Z,85.12
2022-08-29T01:26:29.124Z,85.02
2022-08-29T01:28:56.412Z,84.31
2022-08-29T01:31:55.483Z,84.76
2022-08-29T01:34:19.207Z,84.95
2022-08-29T01:36:52.021Z,85.25
2022-08-29T01:39:22.138Z,85.59
2022-08-29T01:41:50.213Z,85.45
2022-08-29T01:44:19.899Z,85.97
2022-08-29T01:46:49.599Z,85.71
2022-08-29T01:49:17.786Z,85.75
2022-08-29T01:51:44.615Z,86.12
2022-08-29T01:54:12.396Z,86.56
2022-08-29T01:56:55.940Z,86.60
2022-08-29T01:59:29.751Z,87.26
2022-08-29T02:02:03.214Z,86.77
2022-08-29T02:04:29.955Z,87.22
2022-08-29T02:07:12.878Z,87.01
2022-08-29T02:09:45.475Z,87.44
2022-08-29T02:12:14.193Z,86.77
2022-08-29T02:14:41.664Z,86.77
2022-08-29T02:17:08.479Z,86.48
2022-08-29T02:19:35.750Z,86.51
2022-08-29T02:22:02.761Z,86.56
2022-08-29T02:24:30.236Z,86.70
2022-08-29T02:26:58.011Z,87.04
2022-08-29T02:29:36.939Z,87.14
2022-08-29T02:32:21.740Z,87.39
2022-08-29T02:34:48.771Z,87.40
2022-08-29T02:37:16.696Z,87.72
2022-08-29T02:39:43.361Z,88.08
2022-08-29T02:42:10.011Z,88.17
2022-08-29T02:44:38.445Z,87.69
2022-08-29T02:47:05.272Z,87.86
2022-08-29T02:49:31.839Z,88.17
2022-08-29T02:51:59.116Z,87.95
2022-08-29T02:54:26.435Z,88.11
2022-08-29T02:56:52.978Z,88.34
2022-08-29T02:59:19.571Z,88.70
2022-08-29T03:01:46.255Z,88.35
2022-08-29T03:04:12.769Z,88.12
2022-08-29T03:06:39.401Z,88.57
2022-08-29T03:09:05.950Z,88.29
2022-08-29T03:11:32.588Z,88.07
2022-08-29T03:13:59.124Z,88.85
2022-08-29T03:16:26.601Z,89.02
2022-08-29T03:18:54.181Z,88.95
2022-08-29T03:21:25.076Z,88.69
2022-08-29T03:23:55.544Z,88.69
2022-08-29T03:26:23.716Z,88.51
2022-08-29T03:28:50.527Z,88.02
2022-08-29T03:31:17.121Z,88.72
2022-08-29T03:33:43.790Z,88.99
2022-08-29T03:36:14.924Z,88.98
2022-08-29T03:38:43.638Z,88.81
2022-08-29T03:43:51.732Z,89.48
2022-08-29T03:46:18.836Z,89.75
2022-08-29T03:48:45.441Z,89.34
2022-08-29T03:51:12.098Z,89.40
2022-08-29T03:53:38.645Z,89.67
2022-08-29T03:56:06.175Z,89.80
2022-08-29T03:58:33.268Z,89.34
2022-08-29T04:01:00.198Z,88.94
2022-08-29T04:03:31.469Z,88.84
2022-08-29T04:06:09.972Z,89.46
2022-08-29T04:08:51.659Z,89.44
2022-08-29T04:11:24.143Z,89.86
2022-08-29T04:13:53.105Z,89.68
2022-08-29T04:16:23.946Z,89.42
2022-08-29T04:18:50.760Z,89.78
2022-08-29T04:23:59.286Z,89.57
2022-08-29T04:26:37.915Z,89.62
2022-08-29T04:31:53.019Z,90.07
2022-08-29T04:34:43.712Z,89.17
2022-08-29T04:37:28.886Z,89.60
2022-08-29T04:40:07.221Z,89.76
2022-08-29T04:42:41.992Z,89.37
2022-08-29T04:45:14.418Z,89.38
2022-08-29T04:47:42.291Z,89.06
2022-08-29T04:50:12.182Z,89.86
2022-08-29T04:52:39.576Z,89.67
2022-08-29T04:55:07.268Z,89.64
2022-08-29T04:57:35.433Z,88.93
2022-08-29T05:00:02.286Z,88.58
2022-08-29T05:02:28.833Z,88.80
2022-08-29T05:04:56.806Z,89.06
2022-08-29T05:07:25.640Z,88.52
2022-08-29T05:09:58.788Z,88.72
2022-08-29T05:12:26.732Z,88.81
2022-08-29T05:14:53.768Z,88.47
2022-08-29T05:17:20.913Z,88.36
2022-08-29T05:19:48.019Z,88.13
2022-08-29T05:22:15.504Z,88.27
2022-08-29T05:24:42.795Z,88.75
2022-08-29T05:27:11.244Z,88.42
2022-08-29T05:29:42.747Z,88.32
2022-08-29T05:32:11.292Z,87.59
2022-08-29T05:34:39.349Z,87.71
2022-08-29T05:37:12.927Z,87.27
2022-08-29T05:39:39.998Z,87.58
2022-08-29T05:42:08.088Z,86.52
2022-08-29T05:44:36.941Z,86.64
2022-08-29T05:47:08.221Z,85.96
2022-08-29T05:49:39.623Z,85.26
2022-08-29T05:52:07.191Z,85.24
2022-08-29T05:54:36.735Z,84.18
2022-08-29T05:57:03.832Z,84.14
2022-08-29T05:59:30.549Z,84.37
2022-08-29T06:01:57.167Z,83.26
2022-08-29T06:04:23.797Z,82.99
2022-08-29T06:06:50.851Z,82.68
2022-08-29T06:09:17.427Z,82.49
2022-08-29T06:11:47.781Z,82.22
2022-08-29T06:14:15.432Z,82.27
2022-08-29T06:16:42.604Z,82.44
2022-08-29T06:19:09.590Z,82.76
2022-08-29T06:21:38.888Z,81.85
2022-08-29T06:24:07.005Z,81.99
2022-08-29T06:26:34.677Z,81.65
2022-08-29T06:29:06.186Z,82.57
2022-08-29T06:31:32.831Z,82.07
2022-08-29T06:34:01.955Z,81.05
2022-08-29T06:36:30.135Z,81.08
2022-08-29T06:39:01.546Z,80.93
2022-08-29T06:41:29.007Z,80.42
2022-08-29T06:43:56.905Z,80.12
2022-08-29T06:46:35.894Z,79.94
2022-08-29T06:49:04.970Z,80.83
2022-08-29T06:51:33.371Z,79.72
2022-08-29T06:54:01.681Z,79.99
2022-08-29T06:56:30.654Z,81.34
2022-08-29T06:58:57.332Z,80.60
2022-08-29T07:01:24.633Z,79.18
2022-08-29T07:03:54.045Z,79.59
2022-08-29T07:06:20.717Z,79.21
2022-08-29T07:08:55.610Z,80.44
2022-08-29T07:11:24.407Z,78.66
2022-08-29T07:13:51.176Z,78.47
2022-08-29T07:16:18.968Z,78.62
2022-08-29T07:18:46.710Z,76.86
2022-08-29T07:21:20.313Z,76.95
2022-08-29T07:23:47.880Z,76.33
2022-08-29T07:26:20.706Z,76.83
2022-08-29T07:28:52.710Z,77.85
2022-08-29T07:31:19.694Z,77.22
2022-08-29T07:33:46.535Z,77.17
2022-08-29T07:36:13.123Z,77.79
2022-08-29T07:38:39.880Z,75.20
2022-08-29T07:41:09.869Z,75.94
2022-08-29T07:43:37.233Z,74.98
2022-08-29T07:46:16.189Z,75.85
2022-08-29T07:48:43.848Z,75.22
2022-08-29T07:51:16.892Z,74.09
2022-08-29T07:53:44.110Z,73.79
2022-08-29T07:56:17.747Z,74.02
2022-08-29T07:58:44.865Z,74.84
2022-08-29T08:01:20.834Z,75.18
2022-08-29T08:03:47.956Z,75.22
2022-08-29T08:06:14.592Z,75.26
2022-08-29T08:08:41.358Z,75.02
2022-08-29T08:11:09.267Z,75.34
2022-08-29T08:13:37.101Z,75.31
2022-08-29T08:16:09.746Z,74.66
2022-08-29T08:18:38.079Z,75.33
2022-08-29T08:21:05.074Z,75.02
2022-08-29T08:23:31.773Z,75.49
2022-08-29T08:25:58.597Z,75.28
2022-08-29T08:28:25.533Z,74.74
2022-08-29T08:30:52.213Z,74.55
2022-08-29T08:33:18.780Z,72.99
2022-08-29T08:35:46.849Z,72.65
2022-08-29T08:38:14.116Z,72.56
2022-08-29T08:40:57.076Z,71.25
2022-08-29T08:43:33.529Z,71.57
2022-08-29T08:46:00.784Z,72.17
2022-08-29T08:48:35.790Z,72.27
2022-08-29T08:51:09.955Z,72.45
2022-08-29T08:53:40.042Z,72.89
2022-08-29T08:56:20.018Z,71.97
2022-08-29T08:58:57.909Z,72.07
2022-08-29T09:01:30.211Z,72.80
2022-08-29T09:04:04.163Z,70.77
2022-08-29T09:06:45.840Z,71.32
2022-08-29T09:09:29.242Z,71.22
2022-08-29T09:12:20.985Z,70.97
2022-08-29T09:15:04.323Z,69.92
2022-08-29T09:17:55.687Z,69.94
2022-08-29T09:20:28.656Z,70.07
2022-08-29T09:23:02.430Z,69.07
2022-08-29T09:25:30.324Z,68.50
2022-08-29T09:27:58.451Z,67.70
2022-08-29T09:30:29.163Z,68.10
2022-08-29T09:33:02.070Z,68.96
2022-08-29T09:35:50.568Z,68.40
2022-08-29T09:38:20.236Z,70.77
2022-08-29T09:41:02.932Z,68.75
2022-08-29T09:43:38.807Z,69.21
2022-08-29T09:46:11.798Z,70.26
2022-08-29T09:48:41.576Z,69.63
2022-08-29T09:51:30.089Z,69.33
2022-08-29T09:54:27.515Z,70.01
2022-08-29T09:57:11.432Z,70.67
2022-08-29T09:59:45.510Z,69.38
2022-08-29T10:02:26.986Z,69.04
2022-08-29T10:04:55.040Z,68.07
2022-08-29T10:07:30.993Z,67.11
2022-08-29T10:10:20.185Z,67.56
2022-08-29T10:13:05.032Z,67.27
2022-08-29T10:15:49.900Z,66.78
2022-08-29T10:18:28.763Z,67.29
2022-08-29T10:20:58.019Z,67.59
2022-08-29T10:23:27.573Z,67.29
2022-08-29T10:25:54.857Z,67.54
2022-08-29T10:28:49.267Z,68.20
2022-08-29T10:31:26.051Z,67.19
2022-08-29T10:34:13.436Z,67.69
2022-08-29T10:36:43.485Z,68.17
2022-08-29T10:39:25.661Z,69.35
2022-08-29T10:42:03.299Z,69.02
2022-08-29T10:44:56.180Z,69.72
2022-08-29T10:47:51.427Z,70.09
2022-08-29T10:50:44.011Z,70.49
2022-08-29T10:53:23.699Z,70.00
2022-08-29T10:56:10.963Z,70.34
2022-08-29T10:58:53.580Z,70.49
2022-08-29T11:01:26.095Z,71.48
2022-08-29T11:04:18.939Z,70.62
2022-08-29T11:06:57.646Z,70.97
2022-08-29T11:09:40.859Z,70.60
2022-08-29T11:12:23.983Z,71.62
2022-08-29T11:15:00.579Z,72.22
2022-08-29T11:17:34.466Z,72.10
2022-08-29T11:20:13.747Z,72.09
2022-08-29T11:22:52.255Z,73.87
2022-08-29T11:25:20.934Z,72.89
2022-08-29T11:28:12.193Z,71.39
2022-08-29T11:30:50.986Z,71.19
2022-08-29T11:33:35.902Z,68.82
2022-08-29T11:36:26.104Z,68.29
2022-08-29T11:39:10.892Z,66.32
2022-08-29T11:41:43.470Z,65.33
2022-08-29T11:44:28.242Z,63.59
2022-08-29T11:46:56.884Z,64.26
2022-08-29T11:49:26.772Z,63.59
2022-08-29T11:51:56.658Z,65.39
2022-08-29T11:54:28.991Z,64.07
2022-08-29T11:56:58.532Z,64.23
2022-08-29T11:59:44.391Z,64.49
2022-08-29T12:02:30.801Z,63.57
2022-08-29T12:04:57.738Z,63.86
2022-08-29T12:07:34.094Z,64.60
2022-08-29T12:10:03.690Z,65.01
2022-08-29T12:12:41.444Z,64.33
2022-08-29T12:15:50.842Z,64.29
2022-08-29T12:18:20.194Z,62.74
2022-08-29T12:20:52.481Z,61.78
2022-08-29T12:23:23.646Z,64.20
2022-08-29T12:26:22.584Z,61.06
2022-08-29T12:28:58.647Z,60.94
2022-08-29T12:32:22.279Z,62.50
2022-08-29T12:35:05.562Z,63.13
2022-08-29T12:37:32.346Z,63.00
2022-08-29T12:40:15.097Z,64.52
2022-08-29T12:42:59.833Z,65.97
2022-08-29T12:45:30.289Z,63.35
2022-08-29T12:48:31.668Z,63.39
2022-08-29T12:50:58.257Z,63.96
2022-08-29T12:53:35.745Z,63.12
2022-08-29T12:56:16.481Z,63.24
2022-08-29T12:58:53.313Z,63.14
2022-08-29T13:01:25.411Z,63.44
2022-08-29T13:04:09.698Z,63.71
2022-08-29T13:06:37.079Z,62.99
2022-08-29T13:09:06.072Z,61.74
2022-08-29T13:11:33.524Z,60.58
2022-08-29T13:14:10.896Z,61.19
2022-08-29T13:16:39.240Z,60.81
2022-08-29T13:19:18.535Z,60.61
2022-08-29T13:21:45.085Z,60.43
2022-08-29T13:24:16.495Z,59.82
2022-08-29T13:27:10.280Z,58.60
2022-08-29T13:29:40.183Z,59.52
2022-08-29T13:32:23.819Z,60.51
2022-08-29T13:35:19.463Z,60.29
2022-08-29T13:38:07.272Z,60.09
2022-08-29T13:40:46.983Z,59.19
2022-08-29T13:43:44.098Z,60.07
2022-08-29T13:46:15.131Z,60.29
2022-08-29T13:48:42.453Z,60.42
2022-08-29T13:51:08.955Z,60.65
2022-08-29T13:53:35.562Z,61.84
2022-08-29T13:56:02.802Z,61.42
2022-08-29T13:58:31.247Z,61.95
2022-08-29T14:00:58.458Z,60.84
2022-08-29T14:03:28.824Z,61.55
2022-08-29T14:05:56.778Z,60.67
2022-08-29T14:08:24.939Z,61.73
2022-08-29T14:10:52.298Z,61.28
2022-08-29T14:13:19.277Z,61.74
2022-08-29T14:15:49.099Z,60.07
2022-08-29T14:18:16.407Z,59.73
2022-08-29T14:20:43.054Z,59.89
2022-08-29T14:23:09.655Z,60.96
2022-08-29T14:25:36.479Z,59.17
2022-08-29T14:28:03.698Z,58.82
2022-08-29T14:30:30.433Z,58.97
2022-08-29T14:32:57.016Z,58.49
2022-08-29T14:35:25.916Z,58.87
2022-08-29T14:37:53.855Z,58.99
2022-08-29T14:40:21.736Z,58.93
2022-08-29T14:42:48.870Z,60.27
2022-08-29T14:45:15.541Z,59.17
2022-08-29T14:47:43.497Z,57.57
2022-08-29T14:50:12.768Z,56.98
2022-08-29T14:52:39.696Z,57.07
2022-08-29T14:55:07.439Z,57.65
2022-08-29T14:57:36.027Z,58.45
2022-08-29T15:00:09.314Z,58.94
2022-08-29T15:02:35.907Z,58.84
2022-08-29T15:05:02.513Z,55.72
2022-08-29T15:07:29.079Z,51.92
2022-08-29T15:09:55.619Z,53.62
2022-08-29T15:12:22.708Z,49.39
2022-08-29T15:14:49.339Z,46.81
2022-08-29T15:17:15.863Z,44.22
2022-08-29T15:22:29.755Z,47.60
2022-08-29T15:24:56.327Z,48.99
2022-08-29T15:27:27.390Z,46.35
2022-08-29T15:29:54.254Z,42.78
2022-08-29T15:32:20.832Z,38.11
2022-08-29T15:34:47.424Z,37.04
2022-08-29T15:37:14.579Z,36.03
2022-08-29T15:39:41.510Z,35.19
2022-08-29T15:42:11.227Z,35.86
2022-08-29T15:44:40.934Z,35.52
2022-08-29T15:47:10.549Z,35.61
2022-08-29T15:49:39.586Z,38.97
2022-08-29T15:52:06.248Z,39.11
2022-08-29T15:54:32.916Z,42.29
2022-08-29T15:56:59.475Z,41.75
2022-08-29T15:59:47.207Z,40.06
2022-08-29T16:02:13.999Z,41.70
2022-08-29T16:04:44.776Z,42.17
2022-08-29T16:07:18.189Z,42.79
2022-08-29T16:09:45.383Z,45.46
2022-08-29T16:12:12.426Z,48.31
2022-08-29T16:14:58.422Z,49.69
2022-08-29T16:17:29.851Z,52.16
2022-08-29T16:19:57.189Z,54.19
2022-08-29T16:22:24.259Z,56.29
2022-08-29T16:24:50.955Z,57.06
2022-08-29T16:27:22.030Z,58.02
2022-08-29T16:29:53.178Z,57.19
2022-08-29T16:32:20.236Z,58.34
2022-08-29T16:34:46.811Z,59.36
2022-08-29T16:37:13.340Z,58.21
2022-08-29T16:39:42.016Z,59.91
2022-08-29T16:42:09.457Z,59.94
2022-08-29T16:44:36.081Z,59.26
2022-08-29T16:47:02.773Z,61.00
2022-08-29T16:49:29.467Z,61.64
2022-08-29T16:51:57.415Z,61.61
2022-08-29T16:54:24.281Z,62.66
2022-08-29T16:56:50.868Z,62.94
2022-08-29T16:59:18.527Z,60.69
2022-08-29T17:01:48.536Z,61.74
2022-08-29T17:04:24.568Z,60.64
2022-08-29T17:06:51.979Z,60.31
2022-08-29T17:09:20.752Z,64.90
2022-08-29T17:11:47.745Z,65.16
2022-08-29T17:14:16.063Z,65.41
2022-08-29T17:16:45.586Z,65.49
2022-08-29T17:19:13.431Z,66.25
2022-08-29T17:21:39.944Z,66.71
2022-08-29T17:24:07.450Z,67.04
2022-08-29T17:26:40.970Z,67.64
2022-08-29T17:29:11.236Z,67.14
2022-08-29T17:34:20.753Z,66.68
2022-08-29T17:36:49.360Z,67.75
2022-08-29T17:39:15.946Z,68.29
2022-08-29T17:41:43.410Z,69.13
2022-08-29T17:44:13.042Z,69.83
2022-08-29T17:46:39.582Z,70.25
2022-08-29T17:49:08.296Z,70.16
2022-08-29T17:51:53.694Z,69.98
2022-08-29T17:54:21.815Z,70.15
2022-08-29T17:56:57.453Z,70.49
2022-08-29T17:59:27.893Z,70.57
2022-08-29T18:01:55.421Z,71.09
2022-08-29T18:04:22.484Z,70.94
2022-08-29T18:06:49.395Z,71.17
2022-08-29T18:09:17.030Z,71.27
2022-08-29T18:11:47.051Z,72.09
2022-08-29T18:14:13.743Z,72.37
2022-08-29T18:16:40.684Z,72.93
2022-08-29T18:19:07.809Z,73.19
2022-08-29T18:21:35.718Z,73.62
2022-08-29T18:24:13.952Z,74.52
2022-08-29T18:26:42.801Z,75.35
2022-08-29T18:29:10.317Z,75.72
2022-08-29T18:31:47.215Z,75.78
2022-08-29T18:34:14.438Z,76.12
2022-08-29T18:36:43.122Z,76.24
2022-08-29T18:39:11.741Z,76.09
2022-08-29T18:41:38.926Z,76.24
2022-08-29T18:44:05.600Z,76.87
2022-08-29T18:46:33.365Z,77.27
2022-08-29T18:49:00.032Z,77.32
2022-08-29T18:51:32.476Z,77.77
2022-08-29T18:53:59.165Z,78.12
2022-08-29T18:56:46.845Z,78.51
2022-08-29T18:59:17.388Z,78.69
2022-08-29T19:01:46.068Z,79.09
2022-08-29T19:04:32.447Z,79.37
2022-08-29T19:06:59.054Z,79.14
2022-08-29T19:09:25.611Z,80.07
2022-08-29T19:11:52.148Z,80.12
2022-08-29T19:14:18.664Z,80.71
2022-08-29T19:16:45.679Z,81.22
2022-08-29T19:19:13.450Z,81.18
2022-08-29T19:21:41.145Z,81.49
2022-08-29T19:24:08.050Z,82.00
2022-08-29T19:26:38.524Z,82.14
2022-08-29T19:29:12.528Z,82.52
2022-08-29T19:31:46.383Z,83.19
2022-08-29T19:34:19.099Z,83.28
2022-08-29T19:36:47.381Z,83.55
2022-08-29T19:39:14.641Z,83.87
2022-08-29T19:41:43.299Z,83.89
2022-08-29T19:44:09.872Z,84.41
2022-08-29T19:46:44.963Z,84.52
2022-08-29T19:49:15.768Z,84.64
2022-08-29T19:51:43.514Z,84.57
2022-08-29T19:54:11.046Z,84.52
2022-08-29T19:56:39.464Z,84.55
2022-08-29T19:59:17.315Z,84.59
2022-08-29T20:01:51.466Z,84.53
2022-08-29T20:04:18.098Z,84.08
2022-08-29T20:06:46.260Z,84.29
2022-08-29T20:09:14.869Z,84.60
2022-08-29T20:11:42.894Z,84.44
2022-08-29T20:14:11.171Z,84.66
2022-08-29T20:16:44.722Z,85.17
2022-08-29T20:19:12.603Z,85.19
2022-08-29T20:21:40.673Z,85.42
2022-08-29T20:24:09.583Z,85.80
2022-08-29T20:26:42.851Z,86.14
2022-08-29T20:29:23.014Z,86.49
2022-08-29T20:32:07.226Z,86.62
2022-08-29T20:34:34.727Z,87.15
2022-08-29T20:37:14.073Z,87.10
2022-08-29T20:39:47.151Z,87.50
2022-08-29T20:42:21.978Z,87.69
2022-08-29T20:44:48.729Z,87.97
2022-08-29T20:47:18.647Z,88.05
2022-08-29T20:49:49.465Z,88.39
2022-08-29T20:52:20.121Z,88.34
2022-08-29T20:54:49.487Z,88.57
2022-08-29T20:57:16.353Z,88.55
2022-08-29T20:59:44.158Z,89.07
2022-08-29T21:02:13.994Z,89.26
2022-08-29T21:05:05.065Z,89.70
2022-08-29T21:07:31.891Z,90.41
2022-08-29T21:09:58.601Z,90.85
2022-08-29T21:12:27.626Z,91.03
2022-08-29T21:14:55.343Z,90.94
2022-08-29T21:17:21.864Z,91.19
2022-08-29T21:19:48.363Z,91.50
2022-08-29T21:22:15.850Z,91.89
2022-08-29T21:24:43.012Z,92.03
2022-08-29T21:27:10.584Z,92.08
2022-08-29T21:29:38.455Z,92.34
2022-08-29T21:32:05.359Z,92.28
2022-08-29T21:34:32.991Z,91.96
2022-08-29T21:36:59.566Z,92.49
2022-08-29T21:39:28.585Z,92.89
2022-08-29T21:41:56.759Z,93.07
2022-08-29T21:44:23.380Z,93.06
2022-08-29T21:46:50.005Z,93.22
2022-08-29T21:49:21.544Z,93.19
2022-08-29T21:51:49.405Z,93.46
2022-08-29T21:54:17.917Z,93.46
2022-08-29T21:56:45.583Z,93.64
2022-08-29T21:59:13.775Z,93.29
2022-08-29T22:01:41.599Z,93.29
2022-08-29T22:04:11.502Z,93.26
2022-08-29T22:06:47.133Z,93.83
2022-08-29T22:09:19.323Z,93.74
2022-08-29T22:11:48.618Z,93.78
2022-08-29T22:14:15.203Z,93.88
2022-08-29T22:16:41.831Z,93.81
2022-08-29T22:19:15.603Z,93.83
2022-08-29T22:21:47.784Z,93.75
2022-08-29T22:24:15.872Z,94.14
2022-08-29T22:26:42.993Z,94.18
2022-08-29T22:29:16.147Z,94.23
2022-08-29T22:31:44.382Z,94.88
2022-08-29T22:34:15.908Z,94.71
2022-08-29T22:36:43.316Z,94.91
2022-08-29T22:39:10.491Z,94.84
2022-08-29T22:41:37.479Z,94.68
2022-08-29T22:46:52.918Z,94.57
2022-08-29T22:49:19.672Z,94.59
2022-08-29T22:51:46.622Z,94.79
2022-08-29T22:54:31.940Z,94.76
2022-08-29T22:56:59.692Z,94.70
2022-08-29T22:59:26.361Z,94.97
2022-08-29T23:01:53.667Z,94.99
2022-08-29T23:04:20.727Z,94.66
2022-08-29T23:06:47.261Z,94.57
2022-08-29T23:09:13.839Z,94.49
2022-08-29T23:11:40.753Z,93.97
2022-08-29T23:14:08.072Z,94.31
2022-08-29T23:16:39.354Z,93.71
2022-08-29T23:19:06.111Z,93.74
2022-08-29T23:21:33.500Z,93.99
2022-08-29T23:24:00.228Z,94.02
2022-08-29T23:26:28.342Z,93.74
2022-08-29T23:28:54.904Z,93.73
2022-08-29T23:31:23.010Z,94.15
2022-08-29T23:33:50.494Z,93.99
2022-08-29T23:36:17.533Z,94.17
2022-08-29T23:38:44.276Z,94.84
2022-08-29T23:41:13.595Z,95.33
2022-08-29T23:43:40.493Z,95.08
2022-08-29T23:46:07.781Z,95.19
2022-08-29T23:48:34.885Z,95.44
2022-08-29T23:51:07.233Z,95.59
2022-08-29T23:53:34.999Z,95.87
2022-08-29T23:56:07.378Z,95.77
2022-08-29T23:58:33.988Z,95.86
